Zurich, Switzerland
Current Conditions -  °F | °C
As of 6:50 AM on Monday 24 Nov 2014 (Local Time) from LSMD Reporting Station
Haze Haze  
Wind Chill: 38°   Ceiling: 8500
Heat Index: 41°   Visibility: 2.1mi
Dew Point: 41°   Wind: 5mph
Humidity: 100%   Direction: NA
Pressure: 30.21"   Gusts: NA
Location:  47.38°N, 8.54°E
Report Text: LSMD 240550Z VRB04KT 3500 BR FEW002 BKN085 05/05 Q1023 RMK GRN
Loading
Personal Weather Stations






























Interactive Weather Map New forecast layout! Learn more

10-Day Weather Forecast

Advertisements
Track Severe Weather on mobile